sensor_id;sensor_type;location;lat;lon;timestamp;P1;durP1;ratioP1;P2;durP2;ratioP2
8159;SDS011;27404;52.398;9.646;2022-09-02T00:01:15;1.40;;;0.67;;
8159;SDS011;27404;52.398;9.646;2022-09-02T00:03:56;1.50;;;0.80;;
8159;SDS011;27404;52.398;9.646;2022-09-02T00:06:23;1.80;;;0.80;;
8159;SDS011;27404;52.398;9.646;2022-09-02T00:08:49;1.40;;;0.90;;
8159;SDS011;27404;52.398;9.646;2022-09-02T00:11:16;1.50;;;0.60;;
8159;SDS011;27404;52.398;9.646;2022-09-02T00:13:44;1.80;;;0.80;;
8159;SDS011;27404;52.398;9.646;2022-09-02T00:16:10;1.50;;;0.70;;
8159;SDS011;27404;52.398;9.646;2022-09-02T00:18:35;3.73;;;1.10;;
8159;SDS011;27404;52.398;9.646;2022-09-02T00:21:01;3.30;;;1.10;;
8159;SDS011;27404;52.398;9.646;2022-09-02T00:23:27;2.93;;;0.90;;
8159;SDS011;27404;52.398;9.646;2022-09-02T00:25:53;2.83;;;0.87;;
8159;SDS011;27404;52.398;9.646;2022-09-02T00:28:18;1.57;;;0.90;;
8159;SDS011;27404;52.398;9.646;2022-09-02T00:30:44;4.47;;;1.00;;
8159;SDS011;27404;52.398;9.646;2022-09-02T00:33:13;2.07;;;1.10;;
8159;SDS011;27404;52.398;9.646;2022-09-02T00:35:39;1.27;;;0.73;;
8159;SDS011;27404;52.398;9.646;2022-09-02T00:38:05;4.57;;;0.90;;
8159;SDS011;27404;52.398;9.646;2022-09-02T00:40:31;2.23;;;0.80;;
8159;SDS011;27404;52.398;9.646;2022-09-02T00:42:58;1.50;;;0.83;;
8159;SDS011;27404;52.398;9.646;2022-09-02T00:45:24;2.47;;;0.73;;
8159;SDS011;27404;52.398;9.646;2022-09-02T00:47:49;1.90;;;1.10;;
8159;SDS011;27404;52.398;9.646;2022-09-02T00:50:17;1.57;;;1.07;;
8159;SDS011;27404;52.398;9.646;2022-09-02T00:52:47;1.53;;;0.90;;
8159;SDS011;27404;52.398;9.646;2022-09-02T00:55:19;1.00;;;0.80;;
8159;SDS011;27404;52.398;9.646;2022-09-02T00:57:49;2.43;;;1.00;;
8159;SDS011;27404;52.398;9.646;2022-09-02T01:00:30;1.60;;;0.80;;
8159;SDS011;27404;52.398;9.646;2022-09-02T01:03:01;1.10;;;0.73;;
8159;SDS011;27404;52.398;9.646;2022-09-02T01:05:32;3.57;;;1.10;;
8159;SDS011;27404;52.398;9.646;2022-09-02T01:08:01;2.67;;;0.97;;
8159;SDS011;27404;52.398;9.646;2022-09-02T01:10:30;2.80;;;1.00;;
8159;SDS011;27404;52.398;9.646;2022-09-02T01:13:01;2.17;;;1.00;;
8159;SDS011;27404;52.398;9.646;2022-09-02T01:15:36;3.53;;;0.90;;
8159;SDS011;27404;52.398;9.646;2022-09-02T01:18:05;1.73;;;0.90;;
8159;SDS011;27404;52.398;9.646;2022-09-02T01:20:33;1.40;;;1.00;;
8159;SDS011;27404;52.398;9.646;2022-09-02T01:22:58;1.47;;;1.00;;
8159;SDS011;27404;52.398;9.646;2022-09-02T01:25:26;1.33;;;1.00;;
8159;SDS011;27404;52.398;9.646;2022-09-02T01:27:58;1.97;;;1.03;;
8159;SDS011;27404;52.398;9.646;2022-09-02T01:30:30;1.60;;;0.93;;
8159;SDS011;27404;52.398;9.646;2022-09-02T01:32:56;3.60;;;1.23;;
8159;SDS011;27404;52.398;9.646;2022-09-02T01:35:22;1.30;;;1.10;;
8159;SDS011;27404;52.398;9.646;2022-09-02T01:37:48;2.10;;;0.80;;
8159;SDS011;27404;52.398;9.646;2022-09-02T01:40:15;2.77;;;1.03;;
8159;SDS011;27404;52.398;9.646;2022-09-02T01:42:42;2.77;;;1.40;;
8159;SDS011;27404;52.398;9.646;2022-09-02T01:45:08;1.47;;;1.00;;
8159;SDS011;27404;52.398;9.646;2022-09-02T01:47:34;1.83;;;1.00;;
8159;SDS011;27404;52.398;9.646;2022-09-02T01:50:01;4.17;;;1.10;;
8159;SDS011;27404;52.398;9.646;2022-09-02T01:52:31;1.17;;;0.77;;
8159;SDS011;27404;52.398;9.646;2022-09-02T01:54:57;1.23;;;0.70;;
8159;SDS011;27404;52.398;9.646;2022-09-02T01:57:23;2.07;;;0.90;;
8159;SDS011;27404;52.398;9.646;2022-09-02T01:59:52;1.17;;;0.83;;
8159;SDS011;27404;52.398;9.646;2022-09-02T02:02:18;1.47;;;1.00;;
8159;SDS011;27404;52.398;9.646;2022-09-02T02:04:45;1.53;;;0.90;;
8159;SDS011;27404;52.398;9.646;2022-09-02T02:07:12;1.67;;;0.90;;
8159;SDS011;27404;52.398;9.646;2022-09-02T02:09:40;1.50;;;0.80;;
8159;SDS011;27404;52.398;9.646;2022-09-02T02:12:07;2.40;;;1.10;;
8159;SDS011;27404;52.398;9.646;2022-09-02T02:14:33;2.57;;;0.90;;
8159;SDS011;27404;52.398;9.646;2022-09-02T02:16:58;1.80;;;0.90;;
8159;SDS011;27404;52.398;9.646;2022-09-02T02:19:24;1.10;;;0.90;;
8159;SDS011;27404;52.398;9.646;2022-09-02T02:21:49;1.73;;;0.90;;
8159;SDS011;27404;52.398;9.646;2022-09-02T02:24:15;3.83;;;1.30;;
8159;SDS011;27404;52.398;9.646;2022-09-02T02:26:41;3.30;;;1.10;;
8159;SDS011;27404;52.398;9.646;2022-09-02T02:29:06;1.83;;;1.00;;
8159;SDS011;27404;52.398;9.646;2022-09-02T02:31:32;2.60;;;1.00;;
8159;SDS011;27404;52.398;9.646;2022-09-02T02:33:58;3.20;;;0.90;;
8159;SDS011;27404;52.398;9.646;2022-09-02T02:36:23;2.20;;;1.07;;
8159;SDS011;27404;52.398;9.646;2022-09-02T02:38:49;1.93;;;1.00;;
8159;SDS011;27404;52.398;9.646;2022-09-02T02:41:15;1.13;;;0.97;;
8159;SDS011;27404;52.398;9.646;2022-09-02T02:43:40;4.83;;;1.10;;
8159;SDS011;27404;52.398;9.646;2022-09-02T02:46:06;1.63;;;1.00;;
8159;SDS011;27404;52.398;9.646;2022-09-02T02:48:33;4.67;;;1.20;;
8159;SDS011;27404;52.398;9.646;2022-09-02T02:51:01;2.93;;;1.10;;
8159;SDS011;27404;52.398;9.646;2022-09-02T02:53:27;2.73;;;1.10;;
8159;SDS011;27404;52.398;9.646;2022-09-02T02:55:55;2.07;;;1.07;;
8159;SDS011;27404;52.398;9.646;2022-09-02T02:58:21;2.87;;;1.10;;
8159;SDS011;27404;52.398;9.646;2022-09-02T03:00:47;1.77;;;1.10;;
8159;SDS011;27404;52.398;9.646;2022-09-02T03:03:13;4.60;;;1.10;;
8159;SDS011;27404;52.398;9.646;2022-09-02T03:05:43;4.43;;;0.90;;
8159;SDS011;27404;52.398;9.646;2022-09-02T03:08:10;5.13;;;1.10;;
8159;SDS011;27404;52.398;9.646;2022-09-02T03:10:37;3.63;;;1.00;;
8159;SDS011;27404;52.398;9.646;2022-09-02T03:13:06;2.20;;;0.90;;
8159;SDS011;27404;52.398;9.646;2022-09-02T03:15:34;1.80;;;1.00;;
8159;SDS011;27404;52.398;9.646;2022-09-02T03:18:00;3.17;;;1.17;;
8159;SDS011;27404;52.398;9.646;2022-09-02T03:20:26;1.50;;;1.10;;
8159;SDS011;27404;52.398;9.646;2022-09-02T03:22:53;1.47;;;0.97;;
8159;SDS011;27404;52.398;9.646;2022-09-02T03:25:21;1.50;;;0.90;;
8159;SDS011;27404;52.398;9.646;2022-09-02T03:27:47;5.33;;;1.10;;
8159;SDS011;27404;52.398;9.646;2022-09-02T03:30:15;3.23;;;1.10;;
8159;SDS011;27404;52.398;9.646;2022-09-02T03:32:47;2.27;;;1.40;;
8159;SDS011;27404;52.398;9.646;2022-09-02T03:35:15;2.00;;;1.10;;
8159;SDS011;27404;52.398;9.646;2022-09-02T03:37:43;4.33;;;1.10;;
8159;SDS011;27404;52.398;9.646;2022-09-02T03:40:10;1.53;;;1.00;;
8159;SDS011;27404;52.398;9.646;2022-09-02T03:42:38;1.57;;;1.10;;
8159;SDS011;27404;52.398;9.646;2022-09-02T03:45:04;2.60;;;1.63;;
8159;SDS011;27404;52.398;9.646;2022-09-02T03:47:31;3.20;;;1.20;;
8159;SDS011;27404;52.398;9.646;2022-09-02T03:49:58;1.30;;;1.03;;
8159;SDS011;27404;52.398;9.646;2022-09-02T03:52:23;1.10;;;1.00;;
8159;SDS011;27404;52.398;9.646;2022-09-02T03:54:49;3.50;;;1.10;;
8159;SDS011;27404;52.398;9.646;2022-09-02T03:57:15;3.27;;;1.20;;
8159;SDS011;27404;52.398;9.646;2022-09-02T03:59:40;2.43;;;1.33;;
8159;SDS011;27404;52.398;9.646;2022-09-02T04:02:06;3.73;;;1.40;;
8159;SDS011;27404;52.398;9.646;2022-09-02T04:04:32;3.40;;;1.40;;
8159;SDS011;27404;52.398;9.646;2022-09-02T04:06:58;2.67;;;1.20;;
8159;SDS011;27404;52.398;9.646;2022-09-02T04:09:23;2.40;;;1.10;;
8159;SDS011;27404;52.398;9.646;2022-09-02T04:11:49;2.30;;;1.00;;
8159;SDS011;27404;52.398;9.646;2022-09-02T04:14:14;2.47;;;1.20;;
8159;SDS011;27404;52.398;9.646;2022-09-02T04:16:40;2.10;;;1.53;;
8159;SDS011;27404;52.398;9.646;2022-09-02T04:19:06;7.00;;;1.33;;
8159;SDS011;27404;52.398;9.646;2022-09-02T04:21:34;1.97;;;1.07;;
8159;SDS011;27404;52.398;9.646;2022-09-02T04:24:02;3.53;;;1.33;;
8159;SDS011;27404;52.398;9.646;2022-09-02T04:26:28;2.30;;;1.43;;
8159;SDS011;27404;52.398;9.646;2022-09-02T04:28:54;2.73;;;1.47;;
8159;SDS011;27404;52.398;9.646;2022-09-02T04:31:20;1.77;;;1.30;;
8159;SDS011;27404;52.398;9.646;2022-09-02T04:33:49;5.10;;;1.73;;
8159;SDS011;27404;52.398;9.646;2022-09-02T04:36:16;2.07;;;1.43;;
8159;SDS011;27404;52.398;9.646;2022-09-02T04:38:43;1.93;;;1.30;;
8159;SDS011;27404;52.398;9.646;2022-09-02T04:41:11;3.17;;;1.53;;
8159;SDS011;27404;52.398;9.646;2022-09-02T04:43:38;1.93;;;1.47;;
8159;SDS011;27404;52.398;9.646;2022-09-02T04:46:05;3.20;;;1.70;;
8159;SDS011;27404;52.398;9.646;2022-09-02T04:48:32;2.67;;;1.40;;
8159;SDS011;27404;52.398;9.646;2022-09-02T04:51:13;3.17;;;1.77;;
8159;SDS011;27404;52.398;9.646;2022-09-02T04:53:41;2.33;;;1.40;;
8159;SDS011;27404;52.398;9.646;2022-09-02T04:56:11;3.20;;;1.50;;
8159;SDS011;27404;52.398;9.646;2022-09-02T04:58:39;3.43;;;1.60;;
8159;SDS011;27404;52.398;9.646;2022-09-02T05:01:17;2.23;;;1.60;;
8159;SDS011;27404;52.398;9.646;2022-09-02T05:03:55;2.50;;;1.47;;
8159;SDS011;27404;52.398;9.646;2022-09-02T05:06:22;5.13;;;1.70;;
8159;SDS011;27404;52.398;9.646;2022-09-02T05:08:53;2.37;;;1.33;;
8159;SDS011;27404;52.398;9.646;2022-09-02T05:11:21;4.57;;;1.37;;
8159;SDS011;27404;52.398;9.646;2022-09-02T05:13:49;3.03;;;1.40;;
8159;SDS011;27404;52.398;9.646;2022-09-02T05:16:18;3.17;;;1.77;;
8159;SDS011;27404;52.398;9.646;2022-09-02T05:18:45;3.93;;;1.57;;
8159;SDS011;27404;52.398;9.646;2022-09-02T05:21:11;2.70;;;1.70;;
8159;SDS011;27404;52.398;9.646;2022-09-02T05:23:37;6.47;;;1.67;;
8159;SDS011;27404;52.398;9.646;2022-09-02T05:26:06;8.10;;;2.07;;
8159;SDS011;27404;52.398;9.646;2022-09-02T05:28:33;7.27;;;1.90;;
8159;SDS011;27404;52.398;9.646;2022-09-02T05:31:06;4.50;;;1.87;;
8159;SDS011;27404;52.398;9.646;2022-09-02T05:33:37;7.83;;;2.20;;
8159;SDS011;27404;52.398;9.646;2022-09-02T05:36:06;2.97;;;1.60;;
8159;SDS011;27404;52.398;9.646;2022-09-02T05:38:33;6.83;;;1.80;;
8159;SDS011;27404;52.398;9.646;2022-09-02T05:41:03;6.23;;;2.40;;
8159;SDS011;27404;52.398;9.646;2022-09-02T05:43:36;7.00;;;2.07;;
8159;SDS011;27404;52.398;9.646;2022-09-02T05:46:06;3.60;;;2.10;;
8159;SDS011;27404;52.398;9.646;2022-09-02T05:48:34;3.77;;;1.90;;
8159;SDS011;27404;52.398;9.646;2022-09-02T05:51:19;5.60;;;1.60;;
8159;SDS011;27404;52.398;9.646;2022-09-02T05:53:45;6.13;;;2.00;;
8159;SDS011;27404;52.398;9.646;2022-09-02T05:56:11;2.63;;;1.80;;
8159;SDS011;27404;52.398;9.646;2022-09-02T05:58:36;3.90;;;2.30;;
8159;SDS011;27404;52.398;9.646;2022-09-02T06:01:06;3.90;;;1.80;;
8159;SDS011;27404;52.398;9.646;2022-09-02T06:03:33;4.17;;;1.90;;
8159;SDS011;27404;52.398;9.646;2022-09-02T06:05:59;5.37;;;1.93;;
8159;SDS011;27404;52.398;9.646;2022-09-02T06:08:24;2.90;;;1.60;;
8159;SDS011;27404;52.398;9.646;2022-09-02T06:10:50;4.57;;;1.50;;
8159;SDS011;27404;52.398;9.646;2022-09-02T06:13:15;3.07;;;1.67;;
8159;SDS011;27404;52.398;9.646;2022-09-02T06:15:44;4.27;;;1.43;;
8159;SDS011;27404;52.398;9.646;2022-09-02T06:18:10;2.67;;;1.47;;
8159;SDS011;27404;52.398;9.646;2022-09-02T06:20:39;3.63;;;1.20;;
8159;SDS011;27404;52.398;9.646;2022-09-02T06:23:06;5.10;;;1.50;;
8159;SDS011;27404;52.398;9.646;2022-09-02T06:25:34;2.17;;;1.20;;
8159;SDS011;27404;52.398;9.646;2022-09-02T06:28:01;3.67;;;1.40;;
8159;SDS011;27404;52.398;9.646;2022-09-02T06:30:27;8.40;;;1.77;;
8159;SDS011;27404;52.398;9.646;2022-09-02T06:32:53;4.80;;;1.63;;
8159;SDS011;27404;52.398;9.646;2022-09-02T06:35:20;3.27;;;1.73;;
8159;SDS011;27404;52.398;9.646;2022-09-02T06:37:46;4.33;;;1.60;;
8159;SDS011;27404;52.398;9.646;2022-09-02T06:40:11;4.90;;;2.07;;
8159;SDS011;27404;52.398;9.646;2022-09-02T06:42:39;3.07;;;1.70;;
8159;SDS011;27404;52.398;9.646;2022-09-02T06:45:05;2.33;;;1.30;;
8159;SDS011;27404;52.398;9.646;2022-09-02T06:47:31;5.93;;;1.80;;
8159;SDS011;27404;52.398;9.646;2022-09-02T06:49:57;5.13;;;1.70;;
8159;SDS011;27404;52.398;9.646;2022-09-02T06:52:23;5.17;;;1.80;;
8159;SDS011;27404;52.398;9.646;2022-09-02T06:54:49;2.53;;;1.40;;
8159;SDS011;27404;52.398;9.646;2022-09-02T06:57:15;5.47;;;2.10;;
8159;SDS011;27404;52.398;9.646;2022-09-02T06:59:41;4.27;;;1.87;;
8159;SDS011;27404;52.398;9.646;2022-09-02T07:02:06;4.77;;;1.83;;
8159;SDS011;27404;52.398;9.646;2022-09-02T07:04:32;5.97;;;2.10;;
8159;SDS011;27404;52.398;9.646;2022-09-02T07:07:16;4.23;;;2.20;;
8159;SDS011;27404;52.398;9.646;2022-09-02T07:09:42;4.37;;;1.83;;
8159;SDS011;27404;52.398;9.646;2022-09-02T07:12:08;6.03;;;2.23;;
8159;SDS011;27404;52.398;9.646;2022-09-02T07:14:38;11.80;;;2.37;;
8159;SDS011;27404;52.398;9.646;2022-09-02T07:17:05;6.37;;;2.20;;
8159;SDS011;27404;52.398;9.646;2022-09-02T07:19:31;4.37;;;2.13;;
8159;SDS011;27404;52.398;9.646;2022-09-02T07:21:56;4.57;;;2.00;;
8159;SDS011;27404;52.398;9.646;2022-09-02T07:24:22;3.17;;;1.60;;
8159;SDS011;27404;52.398;9.646;2022-09-02T07:26:48;6.73;;;1.40;;
8159;SDS011;27404;52.398;9.646;2022-09-02T07:29:14;5.70;;;1.93;;
8159;SDS011;27404;52.398;9.646;2022-09-02T07:31:42;3.77;;;2.10;;
8159;SDS011;27404;52.398;9.646;2022-09-02T07:34:10;7.27;;;2.27;;
8159;SDS011;27404;52.398;9.646;2022-09-02T07:36:38;3.33;;;1.70;;
8159;SDS011;27404;52.398;9.646;2022-09-02T07:39:05;4.83;;;1.50;;
8159;SDS011;27404;52.398;9.646;2022-09-02T07:41:33;3.63;;;1.80;;
8159;SDS011;27404;52.398;9.646;2022-09-02T07:44:00;4.67;;;1.70;;
8159;SDS011;27404;52.398;9.646;2022-09-02T07:46:26;5.50;;;1.50;;
8159;SDS011;27404;52.398;9.646;2022-09-02T07:48:53;5.43;;;1.73;;
8159;SDS011;27404;52.398;9.646;2022-09-02T07:51:19;3.70;;;1.57;;
8159;SDS011;27404;52.398;9.646;2022-09-02T07:53:45;4.27;;;1.27;;
8159;SDS011;27404;52.398;9.646;2022-09-02T07:56:12;5.17;;;1.50;;
8159;SDS011;27404;52.398;9.646;2022-09-02T07:58:41;5.43;;;1.50;;
8159;SDS011;27404;52.398;9.646;2022-09-02T08:01:08;3.90;;;1.37;;
8159;SDS011;27404;52.398;9.646;2022-09-02T08:03:34;4.57;;;1.70;;
8159;SDS011;27404;52.398;9.646;2022-09-02T08:06:01;6.80;;;1.50;;
8159;SDS011;27404;52.398;9.646;2022-09-02T08:08:26;4.47;;;1.30;;
8159;SDS011;27404;52.398;9.646;2022-09-02T08:10:53;4.80;;;1.53;;
8159;SDS011;27404;52.398;9.646;2022-09-02T08:13:19;3.20;;;1.57;;
8159;SDS011;27404;52.398;9.646;2022-09-02T08:15:46;3.17;;;1.40;;
8159;SDS011;27404;52.398;9.646;2022-09-02T08:18:12;5.70;;;1.50;;
8159;SDS011;27404;52.398;9.646;2022-09-02T08:20:37;4.67;;;1.50;;
8159;SDS011;27404;52.398;9.646;2022-09-02T08:23:03;1.80;;;1.23;;
8159;SDS011;27404;52.398;9.646;2022-09-02T08:25:30;3.23;;;1.40;;
8159;SDS011;27404;52.398;9.646;2022-09-02T08:27:57;2.30;;;1.30;;
8159;SDS011;27404;52.398;9.646;2022-09-02T08:30:23;12.03;;;1.60;;
8159;SDS011;27404;52.398;9.646;2022-09-02T08:32:48;4.57;;;1.50;;
8159;SDS011;27404;52.398;9.646;2022-09-02T08:35:13;4.10;;;1.40;;
8159;SDS011;27404;52.398;9.646;2022-09-02T08:37:39;3.30;;;1.30;;
8159;SDS011;27404;52.398;9.646;2022-09-02T08:40:06;8.67;;;1.67;;
8159;SDS011;27404;52.398;9.646;2022-09-02T08:42:40;2.00;;;1.40;;
8159;SDS011;27404;52.398;9.646;2022-09-02T08:45:11;2.17;;;1.30;;
8159;SDS011;27404;52.398;9.646;2022-09-02T08:47:42;4.97;;;1.47;;
8159;SDS011;27404;52.398;9.646;2022-09-02T08:50:14;2.30;;;1.20;;
8159;SDS011;27404;52.398;9.646;2022-09-02T08:55:28;2.60;;;1.40;;
8159;SDS011;27404;52.398;9.646;2022-09-02T08:58:00;2.77;;;1.30;;
8159;SDS011;27404;52.398;9.646;2022-09-02T09:00:27;2.63;;;1.50;;
8159;SDS011;27404;52.398;9.646;2022-09-02T09:05:44;2.87;;;1.53;;
8159;SDS011;27404;52.398;9.646;2022-09-02T09:11:20;2.17;;;1.40;;
8159;SDS011;27404;52.398;9.646;2022-09-02T09:16:54;5.30;;;1.20;;
8159;SDS011;27404;52.398;9.646;2022-09-02T09:22:14;2.57;;;1.20;;
8159;SDS011;27404;52.398;9.646;2022-09-02T09:24:44;3.23;;;1.40;;
8159;SDS011;27404;52.398;9.646;2022-09-02T09:27:12;3.73;;;1.23;;
8159;SDS011;27404;52.398;9.646;2022-09-02T09:29:42;2.10;;;1.00;;
8159;SDS011;27404;52.398;9.646;2022-09-02T09:32:27;7.07;;;2.03;;
8159;SDS011;27404;52.398;9.646;2022-09-02T09:40:36;2.10;;;1.10;;
8159;SDS011;27404;52.398;9.646;2022-09-02T09:42:57;2.03;;;0.90;;
8159;SDS011;27404;52.398;9.646;2022-09-02T09:45:33;4.40;;;1.70;;
8159;SDS011;27404;52.398;9.646;2022-09-02T09:55:54;1.37;;;0.87;;
8159;SDS011;27404;52.398;9.646;2022-09-02T10:01:12;3.03;;;1.17;;
8159;SDS011;27404;52.398;9.646;2022-09-02T10:03:46;3.23;;;0.90;;
8159;SDS011;27404;52.398;9.646;2022-09-02T10:08:54;1.43;;;0.90;;
8159;SDS011;27404;52.398;9.646;2022-09-02T10:11:26;1.63;;;0.90;;
8159;SDS011;27404;52.398;9.646;2022-09-02T10:13:58;4.60;;;1.03;;
8159;SDS011;27404;52.398;9.646;2022-09-02T10:16:27;1.70;;;0.90;;
8159;SDS011;27404;52.398;9.646;2022-09-02T10:19:13;2.30;;;1.10;;
8159;SDS011;27404;52.398;9.646;2022-09-02T10:21:57;2.53;;;1.07;;
8159;SDS011;27404;52.398;9.646;2022-09-02T10:24:55;1.77;;;1.20;;
8159;SDS011;27404;52.398;9.646;2022-09-02T10:30:21;5.37;;;1.00;;
8159;SDS011;27404;52.398;9.646;2022-09-02T10:33:07;3.38;;;0.85;;
8159;SDS011;27404;52.398;9.646;2022-09-02T10:41:13;1.55;;;0.82;;
8159;SDS011;27404;52.398;9.646;2022-09-02T10:46:57;5.22;;;1.10;;
8159;SDS011;27404;52.398;9.646;2022-09-02T10:52:52;7.13;;;1.00;;
8159;SDS011;27404;52.398;9.646;2022-09-02T10:55:36;2.72;;;0.95;;
8159;SDS011;27404;52.398;9.646;2022-09-02T11:01:29;1.55;;;0.80;;
8159;SDS011;27404;52.398;9.646;2022-09-02T11:04:01;5.13;;;1.02;;
8159;SDS011;27404;52.398;9.646;2022-09-02T11:06:38;4.65;;;0.93;;
8159;SDS011;27404;52.398;9.646;2022-09-02T11:09:12;5.77;;;0.90;;
8159;SDS011;27404;52.398;9.646;2022-09-02T11:11:42;4.50;;;1.15;;
8159;SDS011;27404;52.398;9.646;2022-09-02T11:14:43;4.70;;;1.10;;
8159;SDS011;27404;52.398;9.646;2022-09-02T11:30:48;3.85;;;1.38;;
8159;SDS011;27404;52.398;9.646;2022-09-02T11:33:21;2.57;;;1.10;;
8159;SDS011;27404;52.398;9.646;2022-09-02T11:35:53;1.93;;;0.97;;
8159;SDS011;27404;52.398;9.646;2022-09-02T11:38:27;7.38;;;1.17;;
8159;SDS011;27404;52.398;9.646;2022-09-02T11:49:00;1.95;;;0.95;;
8159;SDS011;27404;52.398;9.646;2022-09-02T11:54:25;4.22;;;0.80;;
8159;SDS011;27404;52.398;9.646;2022-09-02T11:56:57;2.28;;;0.90;;
8159;SDS011;27404;52.398;9.646;2022-09-02T12:02:12;5.43;;;1.27;;
8159;SDS011;27404;52.398;9.646;2022-09-02T12:07:54;3.95;;;1.08;;
8159;SDS011;27404;52.398;9.646;2022-09-02T12:11:07;3.05;;;1.00;;
8159;SDS011;27404;52.398;9.646;2022-09-02T12:18:36;1.75;;;1.00;;
8159;SDS011;27404;52.398;9.646;2022-09-02T12:21:04;1.58;;;0.95;;
8159;SDS011;27404;52.398;9.646;2022-09-02T12:26:15;1.75;;;0.93;;
8159;SDS011;27404;52.398;9.646;2022-09-02T12:28:42;6.45;;;0.73;;
8159;SDS011;27404;52.398;9.646;2022-09-02T12:33:52;1.25;;;0.75;;
8159;SDS011;27404;52.398;9.646;2022-09-02T12:41:46;1.90;;;0.90;;
8159;SDS011;27404;52.398;9.646;2022-09-02T12:44:51;1.52;;;0.90;;
8159;SDS011;27404;52.398;9.646;2022-09-02T12:47:29;1.88;;;0.88;;
8159;SDS011;27404;52.398;9.646;2022-09-02T12:50:23;2.63;;;1.00;;
8159;SDS011;27404;52.398;9.646;2022-09-02T12:53:20;2.72;;;0.93;;
8159;SDS011;27404;52.398;9.646;2022-09-02T12:56:43;1.40;;;0.90;;
8159;SDS011;27404;52.398;9.646;2022-09-02T12:58:50;4.22;;;1.00;;
8159;SDS011;27404;52.398;9.646;2022-09-02T13:01:40;3.17;;;1.00;;
8159;SDS011;27404;52.398;9.646;2022-09-02T13:04:15;1.48;;;0.82;;
8159;SDS011;27404;52.398;9.646;2022-09-02T13:07:14;4.10;;;1.20;;
8159;SDS011;27404;52.398;9.646;2022-09-02T13:32:27;1.35;;;1.00;;
8159;SDS011;27404;52.398;9.646;2022-09-02T13:34:55;4.05;;;1.25;;
8159;SDS011;27404;52.398;9.646;2022-09-02T13:37:33;5.63;;;1.20;;
8159;SDS011;27404;52.398;9.646;2022-09-02T13:40:05;3.13;;;1.05;;
8159;SDS011;27404;52.398;9.646;2022-09-02T13:42:45;5.05;;;1.35;;
8159;SDS011;27404;52.398;9.646;2022-09-02T13:45:34;9.32;;;1.23;;
8159;SDS011;27404;52.398;9.646;2022-09-02T13:48:01;2.35;;;1.33;;
8159;SDS011;27404;52.398;9.646;2022-09-02T13:50:31;6.15;;;1.30;;
8159;SDS011;27404;52.398;9.646;2022-09-02T13:53:02;3.42;;;1.00;;
8159;SDS011;27404;52.398;9.646;2022-09-02T13:55:29;5.72;;;1.42;;
8159;SDS011;27404;52.398;9.646;2022-09-02T13:57:59;3.55;;;1.10;;
8159;SDS011;27404;52.398;9.646;2022-09-02T14:05:42;3.50;;;0.95;;
8159;SDS011;27404;52.398;9.646;2022-09-02T14:08:11;3.08;;;1.45;;
8159;SDS011;27404;52.398;9.646;2022-09-02T14:10:39;2.70;;;1.00;;
8159;SDS011;27404;52.398;9.646;2022-09-02T14:13:06;3.05;;;1.20;;
8159;SDS011;27404;52.398;9.646;2022-09-02T14:15:33;3.05;;;1.15;;
8159;SDS011;27404;52.398;9.646;2022-09-02T14:20:55;3.13;;;0.88;;
8159;SDS011;27404;52.398;9.646;2022-09-02T14:23:28;2.55;;;0.82;;
8159;SDS011;27404;52.398;9.646;2022-09-02T14:25:59;3.60;;;0.98;;
8159;SDS011;27404;52.398;9.646;2022-09-02T14:28:26;1.67;;;1.20;;
8159;SDS011;27404;52.398;9.646;2022-09-02T14:31:04;1.48;;;0.82;;
8159;SDS011;27404;52.398;9.646;2022-09-02T14:33:45;8.80;;;2.40;;
8159;SDS011;27404;52.398;9.646;2022-09-02T14:38:56;1.95;;;0.95;;
8159;SDS011;27404;52.398;9.646;2022-09-02T14:41:33;1.20;;;0.70;;
8159;SDS011;27404;52.398;9.646;2022-09-02T14:44:14;1.30;;;0.80;;
8159;SDS011;27404;52.398;9.646;2022-09-02T14:46:46;3.60;;;1.00;;
8159;SDS011;27404;52.398;9.646;2022-09-02T14:51:43;0.90;;;0.80;;
8159;SDS011;27404;52.398;9.646;2022-09-02T14:54:11;4.57;;;1.02;;
8159;SDS011;27404;52.398;9.646;2022-09-02T14:57:01;3.63;;;0.82;;
8159;SDS011;27404;52.398;9.646;2022-09-02T14:59:28;2.15;;;1.00;;
8159;SDS011;27404;52.398;9.646;2022-09-02T15:01:53;4.43;;;0.88;;
8159;SDS011;27404;52.398;9.646;2022-09-02T15:04:20;1.92;;;0.80;;
8159;SDS011;27404;52.398;9.646;2022-09-02T15:06:46;3.28;;;0.88;;
8159;SDS011;27404;52.398;9.646;2022-09-02T15:09:12;3.00;;;1.13;;
8159;SDS011;27404;52.398;9.646;2022-09-02T15:11:40;2.65;;;0.98;;
8159;SDS011;27404;52.398;9.646;2022-09-02T15:14:08;1.25;;;0.90;;
8159;SDS011;27404;52.398;9.646;2022-09-02T15:16:34;2.60;;;1.58;;
8159;SDS011;27404;52.398;9.646;2022-09-02T15:19:00;3.20;;;0.90;;
8159;SDS011;27404;52.398;9.646;2022-09-02T15:21:26;5.05;;;0.90;;
8159;SDS011;27404;52.398;9.646;2022-09-02T15:23:52;2.85;;;0.90;;
8159;SDS011;27404;52.398;9.646;2022-09-02T15:26:17;3.33;;;0.90;;
8159;SDS011;27404;52.398;9.646;2022-09-02T15:28:42;3.58;;;0.90;;
8159;SDS011;27404;52.398;9.646;2022-09-02T15:31:09;3.63;;;1.00;;
8159;SDS011;27404;52.398;9.646;2022-09-02T15:33:35;4.22;;;1.02;;
8159;SDS011;27404;52.398;9.646;2022-09-02T15:36:05;6.38;;;1.15;;
8159;SDS011;27404;52.398;9.646;2022-09-02T15:38:37;4.40;;;0.80;;
8159;SDS011;27404;52.398;9.646;2022-09-02T15:41:13;2.55;;;1.10;;
8159;SDS011;27404;52.398;9.646;2022-09-02T15:43:47;3.83;;;0.88;;
8159;SDS011;27404;52.398;9.646;2022-09-02T15:46:31;2.08;;;0.93;;
8159;SDS011;27404;52.398;9.646;2022-09-02T15:49:02;1.63;;;0.70;;
8159;SDS011;27404;52.398;9.646;2022-09-02T15:51:31;2.27;;;0.80;;
8159;SDS011;27404;52.398;9.646;2022-09-02T15:54:01;1.75;;;0.88;;
8159;SDS011;27404;52.398;9.646;2022-09-02T15:56:29;5.30;;;0.93;;
8159;SDS011;27404;52.398;9.646;2022-09-02T15:58:58;4.83;;;1.00;;
8159;SDS011;27404;52.398;9.646;2022-09-02T16:01:28;2.57;;;0.93;;
8159;SDS011;27404;52.398;9.646;2022-09-02T16:03:58;1.00;;;0.70;;
8159;SDS011;27404;52.398;9.646;2022-09-02T16:06:24;1.70;;;0.90;;
8159;SDS011;27404;52.398;9.646;2022-09-02T16:08:50;1.30;;;0.77;;
8159;SDS011;27404;52.398;9.646;2022-09-02T16:11:16;2.57;;;0.80;;
8159;SDS011;27404;52.398;9.646;2022-09-02T16:13:42;2.40;;;0.80;;
8159;SDS011;27404;52.398;9.646;2022-09-02T16:16:08;1.50;;;0.70;;
8159;SDS011;27404;52.398;9.646;2022-09-02T16:18:36;4.70;;;0.80;;
8159;SDS011;27404;52.398;9.646;2022-09-02T16:21:03;2.77;;;0.90;;
8159;SDS011;27404;52.398;9.646;2022-09-02T16:23:32;1.37;;;0.70;;
8159;SDS011;27404;52.398;9.646;2022-09-02T16:28:55;4.10;;;1.03;;
8159;SDS011;27404;52.398;9.646;2022-09-02T16:31:27;1.07;;;0.60;;
8159;SDS011;27404;52.398;9.646;2022-09-02T16:34:04;2.33;;;0.80;;
8159;SDS011;27404;52.398;9.646;2022-09-02T16:36:31;4.13;;;0.77;;
8159;SDS011;27404;52.398;9.646;2022-09-02T16:38:58;1.73;;;0.80;;
8159;SDS011;27404;52.398;9.646;2022-09-02T16:41:29;3.73;;;0.70;;
8159;SDS011;27404;52.398;9.646;2022-09-02T16:43:58;1.83;;;0.70;;
8159;SDS011;27404;52.398;9.646;2022-09-02T16:46:25;2.30;;;0.50;;
8159;SDS011;27404;52.398;9.646;2022-09-02T16:48:52;1.67;;;0.70;;
8159;SDS011;27404;52.398;9.646;2022-09-02T16:51:19;1.60;;;0.70;;
8159;SDS011;27404;52.398;9.646;2022-09-02T16:53:46;1.80;;;0.80;;
8159;SDS011;27404;52.398;9.646;2022-09-02T16:56:12;1.80;;;0.80;;
8159;SDS011;27404;52.398;9.646;2022-09-02T16:58:39;2.53;;;0.60;;
8159;SDS011;27404;52.398;9.646;2022-09-02T17:01:05;2.63;;;1.07;;
8159;SDS011;27404;52.398;9.646;2022-09-02T17:03:32;2.03;;;0.70;;
8159;SDS011;27404;52.398;9.646;2022-09-02T17:05:58;2.10;;;0.80;;
8159;SDS011;27404;52.398;9.646;2022-09-02T17:08:24;1.43;;;0.93;;
8159;SDS011;27404;52.398;9.646;2022-09-02T17:10:49;3.10;;;0.83;;
8159;SDS011;27404;52.398;9.646;2022-09-02T17:13:14;3.57;;;0.93;;
8159;SDS011;27404;52.398;9.646;2022-09-02T17:15:40;2.07;;;0.90;;
8159;SDS011;27404;52.398;9.646;2022-09-02T17:18:06;2.40;;;0.77;;
8159;SDS011;27404;52.398;9.646;2022-09-02T17:20:31;2.87;;;0.80;;
8159;SDS011;27404;52.398;9.646;2022-09-02T17:22:57;3.40;;;0.90;;
8159;SDS011;27404;52.398;9.646;2022-09-02T17:25:22;4.90;;;0.90;;
8159;SDS011;27404;52.398;9.646;2022-09-02T17:27:48;1.83;;;0.83;;
8159;SDS011;27404;52.398;9.646;2022-09-02T17:30:13;2.47;;;0.80;;